< < Back
Terminal Aerodrome Forecast


Current Version              Previous Versions:   1  2  3  4  5  6  7  8  9  

Terminal Aerodrome Forecast

590
FTUS44 KMOB 092339
TAFMOB
TAF
KMOB 092339Z 1000/1024 31007KT P6SM SKC
     FM101700 32010G17KT P6SM SKC=



Latest METAR

667
SAUS80 KWBC 110000 RRA
MTRMOB
METAR KMOB 102356Z 21008KT 10SM FEW250 08/M01 A3025 RMK AO2 SLP243
T00831006 10128 20083 50000


USA.gov is the U.S. government's official web portal to all federal, state and local government web resources and services.